createdAt,value
2023-02-28T00:00:28.583Z,25.98
2023-02-28T00:02:55.540Z,24.15
2023-02-28T00:05:24.868Z,24.38
2023-02-28T00:07:52.383Z,25.13
2023-02-28T00:10:24.925Z,28.58
2023-02-28T00:12:52.947Z,25.42
2023-02-28T00:15:20.557Z,25.63
2023-02-28T00:17:47.521Z,25.35
2023-02-28T00:20:14.521Z,25.65
2023-02-28T00:22:44.874Z,25.75
2023-02-28T00:25:14.327Z,27.58
2023-02-28T00:27:42.159Z,25.23
2023-02-28T00:30:14.786Z,28.15
2023-02-28T00:32:42.259Z,27.77
2023-02-28T00:35:10.068Z,28.05
2023-02-28T00:37:37.072Z,27.67
2023-02-28T00:40:12.369Z,27.38
2023-02-28T00:42:39.599Z,29.85
2023-02-28T00:45:07.052Z,28.33
2023-02-28T00:47:33.842Z,28.42
2023-02-28T00:50:01.336Z,28.35
2023-02-28T00:52:28.157Z,29.67
2023-02-28T00:54:55.513Z,28.15
2023-02-28T00:57:22.566Z,28.33
2023-02-28T00:59:49.590Z,29.55
2023-02-28T01:02:16.366Z,26.92
2023-02-28T01:04:43.208Z,27.05
2023-02-28T01:07:10.029Z,29.73
2023-02-28T01:09:36.798Z,28.10
2023-02-28T01:12:03.875Z,27.13
2023-02-28T01:14:30.635Z,29.05
2023-02-28T01:16:57.444Z,27.05
2023-02-28T01:19:24.253Z,24.83
2023-02-28T01:21:51.677Z,25.10
2023-02-28T01:24:18.545Z,23.85
2023-02-28T01:26:45.352Z,25.75
2023-02-28T01:29:12.081Z,26.05
2023-02-28T01:31:38.959Z,23.73
2023-02-28T01:34:08.108Z,24.58
2023-02-28T01:36:34.986Z,26.45
2023-02-28T01:39:01.725Z,25.95
2023-02-28T01:41:32.312Z,25.05
2023-02-28T01:44:26.830Z,18.30
2023-02-28T01:46:53.583Z,26.45
2023-02-28T01:49:20.989Z,25.48
2023-02-28T01:51:53.288Z,23.60
2023-02-28T01:54:30.657Z,23.75
2023-02-28T01:57:05.064Z,25.50
2023-02-28T01:59:49.962Z,23.63
2023-02-28T02:02:18.936Z,22.92
2023-02-28T02:05:17.058Z,24.50
2023-02-28T02:07:46.469Z,23.20
2023-02-28T02:10:23.016Z,24.17
2023-02-28T02:12:49.728Z,23.88
2023-02-28T02:15:37.878Z,23.80
2023-02-28T02:18:41.979Z,22.48
2023-02-28T02:21:08.671Z,23.17
2023-02-28T02:23:57.308Z,22.77
2023-02-28T02:27:01.527Z,22.20
2023-02-28T02:29:49.398Z,21.50
2023-02-28T02:32:29.658Z,22.52
2023-02-28T02:35:33.024Z,19.88
2023-02-28T02:38:30.695Z,20.85
2023-02-28T02:41:20.601Z,20.98
2023-02-28T02:44:14.610Z,17.98
2023-02-28T02:46:46.395Z,17.02
2023-02-28T02:49:22.664Z,17.77
2023-02-28T02:51:50.880Z,15.30
2023-02-28T02:54:23.880Z,15.10
2023-02-28T02:56:52.425Z,13.77
2023-02-28T02:59:22.906Z,14.95
2023-02-28T03:02:17.601Z,15.18
2023-02-28T03:04:53.753Z,14.00
2023-02-28T03:07:20.913Z,15.40
2023-02-28T03:09:55.746Z,15.30
2023-02-28T03:12:29.470Z,14.73
2023-02-28T03:15:08.288Z,14.40
2023-02-28T03:17:47.889Z,13.93
2023-02-28T03:20:47.187Z,12.90
2023-02-28T03:23:22.761Z,13.20
2023-02-28T03:26:13.011Z,13.25
2023-02-28T03:29:21.042Z,15.38
2023-02-28T03:32:02.098Z,13.43
2023-02-28T03:34:40.646Z,13.27
2023-02-28T03:37:13.568Z,13.55
2023-02-28T03:39:46.334Z,12.05
2023-02-28T03:42:22.083Z,12.48
2023-02-28T03:44:58.069Z,13.15
2023-02-28T03:47:39.217Z,12.90
2023-02-28T03:50:23.773Z,12.27
2023-02-28T03:53:05.872Z,13.45
2023-02-28T03:55:43.815Z,13.23
2023-02-28T03:58:40.173Z,12.95
2023-02-28T04:01:30.611Z,13.18
2023-02-28T04:03:57.811Z,12.65
2023-02-28T04:06:25.482Z,13.75
2023-02-28T04:08:52.604Z,13.65
2023-02-28T04:11:24.757Z,13.05
2023-02-28T04:13:51.529Z,13.48
2023-02-28T04:16:33.566Z,14.00
2023-02-28T04:19:04.107Z,12.68
2023-02-28T04:21:31.742Z,12.98
2023-02-28T04:24:03.109Z,13.75
2023-02-28T04:26:38.923Z,12.65
2023-02-28T04:29:07.252Z,13.95
2023-02-28T04:31:34.619Z,13.70
2023-02-28T04:34:02.267Z,13.35
2023-02-28T04:36:29.520Z,11.63
2023-02-28T04:38:56.707Z,12.80
2023-02-28T04:41:23.889Z,12.88
2023-02-28T04:43:52.873Z,12.90
2023-02-28T04:46:20.426Z,13.18
2023-02-28T04:48:47.285Z,13.07
2023-02-28T04:51:16.205Z,12.18
2023-02-28T04:53:43.689Z,13.88
2023-02-28T04:56:13.908Z,13.82
2023-02-28T04:58:40.883Z,13.60
2023-02-28T05:01:18.051Z,13.65
2023-02-28T05:03:45.029Z,14.30
2023-02-28T05:06:13.260Z,14.77
2023-02-28T05:08:41.011Z,20.17
2023-02-28T05:11:14.849Z,19.90
2023-02-28T05:13:41.636Z,14.57
2023-02-28T05:16:08.618Z,14.02
2023-02-28T05:18:35.379Z,14.65
2023-02-28T05:21:04.906Z,16.33
2023-02-28T05:23:31.656Z,16.17
2023-02-28T05:25:58.697Z,15.32
2023-02-28T05:28:25.517Z,17.48
2023-02-28T05:30:52.285Z,17.13
2023-02-28T05:33:19.077Z,15.27
2023-02-28T05:35:46.124Z,16.95
2023-02-28T05:38:12.906Z,17.40
2023-02-28T05:40:41.422Z,16.20
2023-02-28T05:43:12.193Z,17.02
2023-02-28T05:45:39.175Z,16.30
2023-02-28T05:48:06.460Z,14.95
2023-02-28T05:50:33.221Z,15.45
2023-02-28T05:53:00.044Z,15.32
2023-02-28T05:55:26.939Z,13.00
2023-02-28T05:57:53.707Z,13.57
2023-02-28T06:00:20.799Z,14.00
2023-02-28T06:02:47.594Z,12.98
2023-02-28T06:05:17.223Z,13.48
2023-02-28T06:07:44.781Z,13.75
2023-02-28T06:10:12.928Z,14.18
2023-02-28T06:12:39.988Z,14.20
2023-02-28T06:15:07.217Z,14.57
2023-02-28T06:17:33.979Z,15.75
2023-02-28T06:20:00.791Z,33.08
2023-02-28T06:22:27.612Z,33.88
2023-02-28T06:24:55.799Z,27.38
2023-02-28T06:27:23.229Z,29.30
2023-02-28T06:29:50.075Z,14.20
2023-02-28T06:32:16.865Z,13.93
2023-02-28T06:34:43.754Z,15.18
2023-02-28T06:37:10.482Z,14.52
2023-02-28T06:39:37.545Z,19.92
2023-02-28T06:42:05.035Z,15.07
2023-02-28T06:44:36.428Z,15.75
2023-02-28T06:49:36.438Z,12.85
2023-02-28T06:52:03.911Z,14.23
2023-02-28T06:54:30.702Z,14.02
2023-02-28T06:56:59.281Z,14.07
2023-02-28T06:59:26.039Z,12.30
2023-02-28T07:01:53.269Z,13.13
2023-02-28T07:04:20.397Z,14.05
2023-02-28T07:06:47.121Z,14.23
2023-02-28T07:09:15.031Z,22.50
2023-02-28T07:11:44.026Z,15.82
2023-02-28T07:14:10.776Z,12.40
2023-02-28T07:16:37.757Z,12.98
2023-02-28T07:19:04.800Z,12.40
2023-02-28T07:21:31.819Z,12.60
2023-02-28T07:23:58.996Z,12.10
2023-02-28T07:26:25.816Z,12.70
2023-02-28T07:28:52.625Z,13.55
2023-02-28T07:31:19.850Z,12.60
2023-02-28T07:33:46.858Z,10.65
2023-02-28T07:36:16.665Z,10.52
2023-02-28T07:38:48.102Z,11.32
2023-02-28T07:43:43.106Z,13.18
2023-02-28T07:46:12.840Z,12.55
2023-02-28T07:48:39.684Z,11.18
2023-02-28T07:51:06.829Z,12.65
2023-02-28T07:53:33.828Z,12.85
2023-02-28T07:56:02.512Z,14.45
2023-02-28T07:58:31.399Z,10.75
2023-02-28T08:00:58.780Z,9.18
2023-02-28T08:03:26.101Z,8.95
2023-02-28T08:05:53.852Z,10.15
2023-02-28T08:08:20.732Z,9.77
2023-02-28T08:10:47.484Z,11.05
2023-02-28T08:13:14.227Z,9.40
2023-02-28T08:15:44.030Z,9.52
2023-02-28T08:18:11.128Z,8.30
2023-02-28T08:20:37.970Z,8.80
2023-02-28T08:23:04.785Z,9.30
2023-02-28T08:25:31.549Z,8.65
2023-02-28T08:27:58.364Z,8.73
2023-02-28T08:30:25.229Z,10.73
2023-02-28T08:32:52.028Z,9.20
2023-02-28T08:35:18.833Z,9.18
2023-02-28T08:37:45.914Z,9.23
2023-02-28T08:40:19.119Z,8.70
2023-02-28T08:42:46.894Z,8.27
2023-02-28T08:45:14.515Z,9.02
2023-02-28T08:47:42.020Z,9.77
2023-02-28T08:50:10.609Z,8.85
2023-02-28T08:52:37.450Z,7.07
2023-02-28T08:55:04.358Z,7.30
2023-02-28T08:57:31.151Z,8.13
2023-02-28T08:59:58.407Z,7.63
2023-02-28T09:02:25.206Z,7.70
2023-02-28T09:04:52.022Z,7.95
2023-02-28T09:07:18.837Z,8.30
2023-02-28T09:09:55.797Z,8.05
2023-02-28T09:12:27.204Z,7.32
2023-02-28T09:14:54.556Z,7.63
2023-02-28T09:17:21.883Z,8.93
2023-02-28T09:19:50.336Z,8.48
2023-02-28T09:22:17.625Z,7.38
2023-02-28T09:24:45.734Z,8.10
2023-02-28T09:27:12.597Z,9.05
2023-02-28T09:29:39.427Z,8.85
2023-02-28T09:32:07.013Z,7.88
2023-02-28T09:34:34.151Z,7.72
2023-02-28T09:37:00.987Z,7.45
2023-02-28T09:39:28.098Z,8.65
2023-02-28T09:41:56.701Z,7.13
2023-02-28T09:44:30.462Z,7.50
2023-02-28T09:47:09.596Z,7.05
2023-02-28T09:49:43.681Z,7.95
2023-02-28T09:52:14.960Z,7.38
2023-02-28T09:54:41.873Z,8.10
2023-02-28T09:57:26.928Z,7.55
2023-02-28T10:00:09.324Z,10.73
2023-02-28T10:02:47.362Z,8.02
2023-02-28T10:05:16.679Z,7.70
2023-02-28T10:08:12.981Z,8.65
2023-02-28T10:10:46.291Z,8.77
2023-02-28T10:13:19.149Z,21.70
2023-02-28T10:15:50.098Z,8.13
2023-02-28T10:18:26.581Z,9.30
2023-02-28T10:20:54.610Z,9.50
2023-02-28T10:23:49.116Z,12.65
2023-02-28T10:26:18.785Z,8.55
2023-02-28T10:28:46.466Z,9.20
2023-02-28T10:31:18.602Z,7.70
2023-02-28T10:33:46.284Z,8.38
2023-02-28T10:36:18.323Z,7.65
2023-02-28T10:38:47.555Z,7.47
2023-02-28T10:41:29.771Z,8.23
2023-02-28T10:44:16.656Z,8.85
2023-02-28T10:46:44.111Z,9.98
2023-02-28T10:49:23.225Z,8.68
2023-02-28T10:51:54.145Z,9.55
2023-02-28T10:54:38.923Z,10.85
2023-02-28T10:57:16.533Z,7.93
2023-02-28T10:59:43.656Z,9.10
2023-02-28T11:02:39.413Z,9.30
2023-02-28T11:05:29.353Z,9.95
2023-02-28T11:08:06.871Z,13.77
2023-02-28T11:10:35.949Z,11.90
2023-02-28T11:13:04.690Z,10.52
2023-02-28T11:15:34.591Z,9.52
2023-02-28T11:18:07.541Z,9.23
2023-02-28T11:20:35.905Z,10.70
2023-02-28T11:23:05.359Z,13.02
2023-02-28T11:25:39.986Z,8.98
2023-02-28T11:28:25.739Z,12.75
2023-02-28T11:31:04.935Z,8.02
2023-02-28T11:33:43.510Z,8.30
2023-02-28T11:36:32.133Z,9.85
2023-02-28T11:39:10.081Z,8.57
2023-02-28T11:42:08.553Z,8.88
2023-02-28T11:44:52.567Z,8.13
2023-02-28T11:47:27.826Z,7.88
2023-02-28T11:50:13.214Z,9.57
2023-02-28T11:52:57.156Z,8.88
2023-02-28T11:55:29.959Z,10.27
2023-02-28T11:58:11.890Z,7.50
2023-02-28T12:00:51.698Z,7.40
2023-02-28T12:03:31.703Z,7.85
2023-02-28T12:06:07.432Z,8.75
2023-02-28T12:09:02.220Z,8.60
2023-02-28T12:11:43.086Z,8.00
2023-02-28T12:14:48.270Z,8.17
2023-02-28T12:17:18.094Z,7.20
2023-02-28T12:20:11.668Z,8.10
2023-02-28T12:22:58.635Z,8.52
2023-02-28T12:25:50.588Z,8.65
2023-02-28T12:31:10.890Z,8.85
2023-02-28T12:33:45.037Z,10.98
2023-02-28T12:36:18.572Z,10.88
2023-02-28T12:38:50.721Z,10.38
2023-02-28T12:41:42.395Z,12.88
2023-02-28T12:44:21.773Z,14.70
2023-02-28T12:46:52.805Z,15.23
2023-02-28T12:49:38.355Z,14.73
2023-02-28T12:52:06.348Z,12.82
2023-02-28T12:54:51.296Z,10.82
2023-02-28T12:57:40.628Z,8.32
2023-02-28T13:00:15.475Z,15.25
2023-02-28T13:02:42.389Z,10.10
2023-02-28T13:05:27.943Z,9.77
2023-02-28T13:08:12.941Z,10.07
2023-02-28T13:10:45.969Z,12.35
2023-02-28T13:13:18.106Z,10.85
2023-02-28T13:16:11.193Z,10.80
2023-02-28T13:18:40.927Z,10.13
2023-02-28T13:21:28.229Z,11.10
2023-02-28T13:23:59.403Z,9.25
2023-02-28T13:26:32.317Z,8.93
2023-02-28T13:29:03.288Z,11.48
2023-02-28T13:31:30.428Z,9.88
2023-02-28T13:34:03.524Z,8.80
2023-02-28T13:36:31.505Z,10.35
2023-02-28T13:39:23.997Z,8.45
2023-02-28T13:41:50.875Z,11.50
2023-02-28T13:44:27.831Z,15.68
2023-02-28T13:46:57.806Z,20.50
2023-02-28T13:49:24.678Z,17.60
2023-02-28T13:51:51.896Z,20.33
2023-02-28T13:54:40.649Z,15.75
2023-02-28T13:57:38.779Z,15.10
2023-02-28T14:00:09.382Z,11.57
2023-02-28T14:03:18.088Z,9.17
2023-02-28T14:05:45.797Z,10.20
2023-02-28T14:08:22.073Z,12.10
2023-02-28T14:10:52.061Z,11.95
2023-02-28T14:13:46.138Z,17.88
2023-02-28T14:16:21.496Z,13.98
2023-02-28T14:18:57.388Z,16.50
2023-02-28T14:21:35.310Z,13.18
2023-02-28T14:24:21.896Z,14.13
2023-02-28T14:27:07.357Z,13.25
2023-02-28T14:29:49.448Z,17.63
2023-02-28T14:32:39.423Z,13.50
2023-02-28T14:35:41.644Z,14.95
2023-02-28T14:38:18.931Z,14.85
2023-02-28T14:40:48.703Z,15.18
2023-02-28T14:43:26.952Z,27.17
2023-02-28T14:46:05.401Z,14.40
2023-02-28T14:48:32.449Z,18.63
2023-02-28T14:51:01.753Z,12.30
2023-02-28T14:53:37.620Z,12.30
2023-02-28T14:56:04.865Z,16.60
2023-02-28T14:58:34.180Z,12.65
2023-02-28T15:01:04.585Z,13.20
2023-02-28T15:03:33.515Z,12.30
2023-02-28T15:06:04.983Z,11.25
2023-02-28T15:08:36.205Z,12.65
2023-02-28T15:11:05.452Z,12.23
2023-02-28T15:13:54.381Z,13.40
2023-02-28T15:16:30.711Z,12.02
2023-02-28T15:19:14.287Z,15.70
2023-02-28T15:21:47.141Z,16.42
2023-02-28T15:24:28.160Z,17.15
2023-02-28T15:26:58.987Z,16.20
2023-02-28T15:29:30.187Z,14.63
2023-02-28T15:31:58.585Z,15.98
2023-02-28T15:34:42.901Z,16.58
2023-02-28T15:37:53.510Z,12.88
2023-02-28T15:40:23.232Z,12.38
2023-02-28T15:43:18.477Z,14.18
2023-02-28T15:45:47.355Z,15.50
2023-02-28T15:48:19.929Z,14.95
2023-02-28T15:50:54.744Z,13.20
2023-02-28T15:53:29.821Z,13.27
2023-02-28T15:56:01.636Z,14.65
2023-02-28T15:58:29.821Z,14.15
2023-02-28T16:01:24.987Z,13.40
2023-02-28T16:03:54.829Z,13.15
2023-02-28T16:06:53.448Z,12.80
2023-02-28T16:09:20.373Z,11.73
2023-02-28T16:11:49.729Z,11.57
2023-02-28T16:14:25.236Z,13.30
2023-02-28T16:16:57.342Z,13.55
2023-02-28T16:19:25.149Z,13.57
2023-02-28T16:21:52.643Z,11.90
2023-02-28T16:24:19.600Z,13.32
2023-02-28T16:26:53.380Z,13.35
2023-02-28T16:29:28.854Z,13.35
2023-02-28T16:31:56.083Z,13.98
2023-02-28T16:34:23.738Z,13.70
2023-02-28T16:36:51.309Z,14.35
2023-02-28T16:39:18.366Z,14.52
2023-02-28T16:41:47.442Z,14.38
2023-02-28T16:44:22.651Z,16.48
2023-02-28T16:46:49.798Z,17.05
2023-02-28T16:49:16.900Z,16.45
2023-02-28T16:51:43.739Z,17.23
2023-02-28T16:54:11.168Z,16.90
2023-02-28T16:56:43.684Z,18.17
2023-02-28T16:59:14.148Z,17.02
2023-02-28T17:01:41.287Z,17.77
2023-02-28T17:04:12.095Z,19.02
2023-02-28T17:06:41.444Z,21.05
2023-02-28T17:09:22.989Z,22.08
2023-02-28T17:11:51.593Z,20.40
2023-02-28T17:14:18.969Z,21.55
2023-02-28T17:16:46.385Z,19.70
2023-02-28T17:19:16.204Z,19.83
2023-02-28T17:21:44.847Z,18.08
2023-02-28T17:24:22.190Z,19.98
2023-02-28T17:26:57.007Z,23.33
2023-02-28T17:29:25.564Z,19.42
2023-02-28T17:31:53.453Z,18.98
2023-02-28T17:34:22.429Z,21.38
2023-02-28T17:36:51.452Z,21.38
2023-02-28T17:39:25.661Z,19.92
2023-02-28T17:41:54.447Z,20.17
2023-02-28T17:44:22.359Z,23.70
2023-02-28T17:46:50.665Z,23.98
2023-02-28T17:49:20.642Z,22.83
2023-02-28T17:51:48.915Z,23.48
2023-02-28T17:54:18.982Z,26.75
2023-02-28T17:56:47.057Z,22.58
2023-02-28T17:59:14.203Z,21.95
2023-02-28T18:01:41.572Z,25.90
2023-02-28T18:04:08.776Z,25.50
2023-02-28T18:06:52.497Z,25.77
2023-02-28T18:09:25.575Z,22.65
2023-02-28T18:11:54.645Z,21.95
2023-02-28T18:14:47.326Z,22.30
2023-02-28T18:17:14.513Z,22.30
2023-02-28T18:19:42.784Z,21.30
2023-02-28T18:22:10.648Z,21.75
2023-02-28T18:24:38.850Z,22.25
2023-02-28T18:27:07.739Z,20.90
2023-02-28T18:29:35.170Z,22.42
2023-02-28T18:32:03.030Z,21.42
2023-02-28T18:34:31.945Z,21.38
2023-02-28T18:36:59.401Z,22.45
2023-02-28T18:39:26.856Z,25.15
2023-02-28T18:41:54.556Z,25.00
2023-02-28T18:44:22.318Z,23.92
2023-02-28T18:46:51.264Z,24.58
2023-02-28T18:49:19.189Z,23.40
2023-02-28T18:51:47.648Z,22.70
2023-02-28T18:54:16.913Z,25.65
2023-02-28T18:56:53.866Z,23.30
2023-02-28T18:59:23.104Z,20.35
2023-02-28T19:01:52.188Z,21.98
2023-02-28T19:04:20.057Z,22.75
2023-02-28T19:06:47.996Z,22.70
2023-02-28T19:09:17.571Z,23.90
2023-02-28T19:11:45.313Z,19.45
2023-02-28T19:14:13.124Z,20.27
2023-02-28T19:16:42.321Z,20.73
2023-02-28T19:19:11.101Z,21.10
2023-02-28T19:21:41.967Z,20.60
2023-02-28T19:24:09.748Z,20.55
2023-02-28T19:26:37.812Z,19.10
2023-02-28T19:29:06.166Z,19.50
2023-02-28T19:31:34.368Z,18.70
2023-02-28T19:34:03.852Z,21.45
2023-02-28T19:36:31.720Z,20.10
2023-02-28T19:39:00.291Z,22.05
2023-02-28T19:41:27.858Z,28.23
2023-02-28T19:43:55.517Z,24.55
2023-02-28T19:46:26.624Z,22.83
2023-02-28T19:48:54.470Z,21.20
2023-02-28T19:51:22.230Z,18.90
2023-02-28T19:53:49.419Z,19.33
2023-02-28T19:56:16.645Z,19.55
2023-02-28T19:58:44.174Z,25.33
2023-02-28T20:01:15.023Z,28.13
2023-02-28T20:03:43.348Z,27.23
2023-02-28T20:06:14.387Z,29.98
2023-02-28T20:08:42.378Z,27.02
2023-02-28T20:11:13.530Z,25.25
2023-02-28T20:13:41.060Z,24.85
2023-02-28T20:16:11.770Z,27.98
2023-02-28T20:18:40.922Z,24.40
2023-02-28T20:21:09.659Z,24.17
2023-02-28T20:23:42.101Z,25.73
2023-02-28T20:26:10.223Z,26.75
2023-02-28T20:28:39.106Z,28.50
2023-02-28T20:31:18.812Z,26.15
2023-02-28T20:33:47.026Z,22.90
2023-02-28T20:36:16.013Z,22.70
2023-02-28T20:38:44.470Z,22.17
2023-02-28T20:41:12.843Z,22.90
2023-02-28T20:43:40.934Z,22.90
2023-02-28T20:46:10.924Z,22.63
2023-02-28T20:48:39.162Z,22.02
2023-02-28T20:51:08.036Z,19.83
2023-02-28T20:53:37.062Z,18.33
2023-02-28T20:56:09.597Z,18.50
2023-02-28T20:58:38.641Z,19.65
2023-02-28T21:01:20.570Z,21.55
2023-02-28T21:03:50.189Z,19.90
2023-02-28T21:06:19.680Z,18.52
2023-02-28T21:08:47.228Z,19.10
2023-02-28T21:11:20.638Z,21.08
2023-02-28T21:13:48.466Z,18.83
2023-02-28T21:16:18.003Z,20.33
2023-02-28T21:18:46.149Z,20.05
2023-02-28T21:21:16.287Z,19.30
2023-02-28T21:23:45.449Z,19.83
2023-02-28T21:26:20.781Z,20.02
2023-02-28T21:28:53.012Z,18.95
2023-02-28T21:31:22.425Z,18.35
2023-02-28T21:33:49.944Z,19.50
2023-02-28T21:36:20.028Z,19.70
2023-02-28T21:38:48.709Z,18.85
2023-02-28T21:41:18.786Z,16.65
2023-02-28T21:43:46.096Z,17.80
2023-02-28T21:46:16.229Z,17.98
2023-02-28T21:48:44.020Z,17.40
2023-02-28T21:51:19.738Z,18.30
2023-02-28T21:53:48.417Z,18.45
2023-02-28T21:56:20.943Z,19.58
2023-02-28T21:58:48.485Z,19.27
2023-02-28T22:01:18.615Z,16.38
2023-02-28T22:03:46.357Z,18.85
2023-02-28T22:06:19.394Z,17.05
2023-02-28T22:08:48.266Z,16.63
2023-02-28T22:11:17.087Z,17.20
2023-02-28T22:13:44.440Z,17.17
2023-02-28T22:16:16.949Z,15.77
2023-02-28T22:18:44.121Z,15.75
2023-02-28T22:21:12.556Z,17.40
2023-02-28T22:23:40.905Z,16.02
2023-02-28T22:26:10.708Z,15.73
2023-02-28T22:28:37.754Z,18.27
2023-02-28T22:31:22.075Z,15.95
2023-02-28T22:33:50.136Z,16.83
2023-02-28T22:36:19.467Z,17.15
2023-02-28T22:38:48.171Z,17.38
2023-02-28T22:41:15.226Z,18.60
2023-02-28T22:43:42.722Z,17.35
2023-02-28T22:46:12.915Z,17.75
2023-02-28T22:48:40.107Z,18.13
2023-02-28T22:51:12.649Z,18.25
2023-02-28T22:53:40.044Z,17.60
2023-02-28T22:56:08.823Z,16.77
2023-02-28T22:58:36.423Z,15.75
2023-02-28T23:01:15.225Z,16.58
2023-02-28T23:03:44.549Z,17.48
2023-02-28T23:06:25.884Z,15.90
2023-02-28T23:08:56.553Z,17.23
2023-02-28T23:11:32.652Z,16.97
2023-02-28T23:13:59.824Z,15.45
2023-02-28T23:16:31.133Z,16.25
2023-02-28T23:18:59.944Z,15.00
2023-02-28T23:21:27.870Z,15.05
2023-02-28T23:23:54.974Z,15.82
2023-02-28T23:26:22.045Z,15.32
2023-02-28T23:28:48.957Z,15.00
2023-02-28T23:31:16.267Z,15.60
2023-02-28T23:33:43.091Z,15.02
2023-02-28T23:36:12.287Z,15.65
2023-02-28T23:38:41.029Z,15.52
2023-02-28T23:41:09.461Z,17.23
2023-02-28T23:43:36.864Z,15.77
2023-02-28T23:46:04.463Z,14.32
2023-02-28T23:48:31.361Z,15.90
2023-02-28T23:51:08.839Z,15.25
2023-02-28T23:53:39.986Z,14.95
2023-02-28T23:56:09.799Z,15.27
2023-02-28T23:58:37.222Z,16.33
